createdAt,value
2022-09-25T00:01:01.592Z,11.50
2022-09-25T00:03:29.944Z,11.60
2022-09-25T00:06:32.710Z,11.70
2022-09-25T00:09:01.280Z,11.70
2022-09-25T00:11:32.142Z,11.70
2022-09-25T00:14:01.020Z,11.60
2022-09-25T00:16:30.446Z,11.70
2022-09-25T00:19:16.973Z,11.70
2022-09-25T00:21:44.913Z,11.80
2022-09-25T00:24:12.702Z,11.70
2022-09-25T00:26:42.320Z,11.80
2022-09-25T00:29:16.700Z,11.90
2022-09-25T00:31:43.524Z,11.80
2022-09-25T00:34:11.136Z,11.70
2022-09-25T00:36:37.679Z,11.90
2022-09-25T00:39:04.540Z,11.90
2022-09-25T00:41:31.280Z,11.90
2022-09-25T00:44:00.433Z,11.90
2022-09-25T00:46:42.539Z,12.00
2022-09-25T00:49:23.852Z,12.00
2022-09-25T00:52:07.301Z,11.90
2022-09-25T00:54:40.412Z,11.90
2022-09-25T00:57:12.977Z,12.00
2022-09-25T00:59:51.565Z,12.10
2022-09-25T01:02:28.429Z,11.90
2022-09-25T01:05:01.240Z,11.70
2022-09-25T01:07:28.826Z,11.80
2022-09-25T01:09:58.608Z,11.80
2022-09-25T01:12:25.534Z,11.80
2022-09-25T01:14:52.013Z,11.80
2022-09-25T01:17:39.385Z,11.80
2022-09-25T01:23:30.211Z,11.90
2022-09-25T01:29:30.151Z,11.80
2022-09-25T01:33:30.951Z,12.00
2022-09-25T01:36:14.168Z,11.60
2022-09-25T01:39:06.601Z,11.60
2022-09-25T01:41:50.069Z,11.60
2022-09-25T01:44:37.495Z,11.60
2022-09-25T01:47:21.519Z,11.70
2022-09-25T01:50:01.557Z,11.70
2022-09-25T01:53:20.827Z,11.80
2022-09-25T01:56:03.817Z,11.70
2022-09-25T01:58:52.849Z,11.80
2022-09-25T02:01:38.040Z,11.80
2022-09-25T02:04:24.396Z,11.90
2022-09-25T02:06:55.750Z,11.90
2022-09-25T02:09:47.145Z,11.90
2022-09-25T02:12:36.561Z,12.00
2022-09-25T02:15:16.211Z,11.90
2022-09-25T02:18:21.425Z,11.90
2022-09-25T02:21:16.582Z,12.00
2022-09-25T02:24:25.130Z,12.10
2022-09-25T02:26:52.037Z,12.00
2022-09-25T02:29:19.498Z,12.00
2022-09-25T02:32:14.231Z,12.10
2022-09-25T02:34:41.330Z,12.00
2022-09-25T02:37:17.055Z,11.90
2022-09-25T02:39:49.249Z,11.90
2022-09-25T02:45:52.584Z,12.00
2022-09-25T02:50:25.576Z,12.00
2022-09-25T02:53:21.397Z,12.00
2022-09-25T02:56:02.971Z,12.10
2022-09-25T02:58:40.773Z,12.10
2022-09-25T03:01:13.225Z,12.00
2022-09-25T03:03:41.327Z,12.00
2022-09-25T03:06:09.649Z,12.00
2022-09-25T03:08:43.938Z,12.00
2022-09-25T03:11:17.576Z,12.00
2022-09-25T03:13:44.855Z,12.00
2022-09-25T03:16:35.005Z,11.90
2022-09-25T03:19:02.914Z,11.90
2022-09-25T03:21:29.427Z,11.90
2022-09-25T03:23:56.335Z,11.90
2022-09-25T03:26:24.608Z,12.10
2022-09-25T03:28:52.156Z,12.10
2022-09-25T03:31:18.712Z,12.10
2022-09-25T03:33:46.273Z,12.10
2022-09-25T03:36:22.627Z,11.90
2022-09-25T03:38:52.633Z,11.90
2022-09-25T03:41:21.953Z,11.90
2022-09-25T03:43:51.042Z,11.90
2022-09-25T03:46:22.480Z,11.90
2022-09-25T03:48:49.479Z,11.90
2022-09-25T03:51:16.255Z,12.00
2022-09-25T03:53:42.776Z,11.90
2022-09-25T03:56:17.624Z,11.90
2022-09-25T03:58:44.468Z,11.90
2022-09-25T04:01:11.297Z,11.90
2022-09-25T04:03:38.937Z,12.10
2022-09-25T04:06:07.830Z,12.00
2022-09-25T04:08:36.130Z,11.90
2022-09-25T04:11:03.832Z,11.80
2022-09-25T04:13:34.574Z,11.80
2022-09-25T04:16:04.950Z,11.90
2022-09-25T04:18:31.882Z,11.90
2022-09-25T04:21:07.606Z,11.90
2022-09-25T04:23:35.515Z,11.90
2022-09-25T04:26:02.580Z,11.90
2022-09-25T04:28:31.520Z,11.90
2022-09-25T04:30:58.096Z,12.00
2022-09-25T04:33:42.805Z,12.00
2022-09-25T04:36:09.312Z,12.00
2022-09-25T04:38:35.798Z,12.00
2022-09-25T04:41:03.033Z,12.00
2022-09-25T04:43:31.872Z,12.00
2022-09-25T04:46:07.578Z,12.10
2022-09-25T04:48:34.950Z,12.00
2022-09-25T04:51:01.557Z,12.00
2022-09-25T04:53:30.487Z,12.10
2022-09-25T04:56:09.786Z,12.00
2022-09-25T04:58:48.747Z,12.00
2022-09-25T05:01:18.111Z,12.00
2022-09-25T05:03:49.445Z,12.00
2022-09-25T05:06:16.044Z,12.00
2022-09-25T05:08:42.537Z,11.90
2022-09-25T05:11:09.206Z,11.90
2022-09-25T05:13:35.713Z,12.00
2022-09-25T05:16:02.364Z,12.00
2022-09-25T05:18:28.931Z,11.90
2022-09-25T05:20:55.892Z,11.90
2022-09-25T05:23:23.120Z,11.90
2022-09-25T05:25:54.581Z,11.90
2022-09-25T05:28:22.700Z,12.00
2022-09-25T05:30:49.188Z,12.10
2022-09-25T05:33:15.706Z,12.10
2022-09-25T05:35:42.212Z,12.10
2022-09-25T05:38:08.724Z,12.10
2022-09-25T05:40:36.674Z,12.10
2022-09-25T05:43:03.271Z,12.10
2022-09-25T05:45:29.735Z,12.10
2022-09-25T05:48:07.948Z,12.10
2022-09-25T05:50:35.212Z,12.10
2022-09-25T05:53:04.545Z,12.10
2022-09-25T05:55:31.314Z,12.10
2022-09-25T05:58:03.116Z,12.20
2022-09-25T06:00:31.894Z,12.20
2022-09-25T06:03:00.271Z,12.20
2022-09-25T06:05:26.858Z,12.20
2022-09-25T06:07:54.905Z,12.20
2022-09-25T06:10:21.783Z,12.10
2022-09-25T06:12:48.257Z,12.20
2022-09-25T06:15:14.817Z,12.20
2022-09-25T06:17:41.312Z,12.30
2022-09-25T06:20:12.129Z,12.30
2022-09-25T06:22:43.648Z,12.30
2022-09-25T06:25:10.271Z,12.30
2022-09-25T06:27:37.056Z,12.30
2022-09-25T06:30:05.051Z,12.40
2022-09-25T06:32:31.553Z,12.50
2022-09-25T06:34:58.018Z,12.50
2022-09-25T06:37:24.540Z,12.40
2022-09-25T06:39:51.031Z,12.50
2022-09-25T06:42:17.532Z,12.50
2022-09-25T06:44:44.004Z,12.50
2022-09-25T06:47:16.213Z,12.50
2022-09-25T06:49:45.673Z,12.60
2022-09-25T06:52:12.166Z,12.60
2022-09-25T06:54:43.309Z,12.70
2022-09-25T06:57:11.819Z,12.70
2022-09-25T06:59:38.789Z,12.70
2022-09-25T07:02:24.143Z,12.80
2022-09-25T07:04:50.789Z,12.80
2022-09-25T07:07:20.444Z,12.90
2022-09-25T07:09:47.879Z,13.00
2022-09-25T07:12:17.618Z,12.90
2022-09-25T07:14:46.171Z,12.90
2022-09-25T07:17:13.818Z,12.90
2022-09-25T07:19:40.304Z,13.00
2022-09-25T07:22:06.782Z,12.90
2022-09-25T07:24:33.275Z,12.90
2022-09-25T07:26:59.744Z,12.80
2022-09-25T07:29:26.229Z,12.80
2022-09-25T07:31:52.688Z,12.80
2022-09-25T07:34:19.187Z,12.70
2022-09-25T07:36:46.778Z,12.70
2022-09-25T07:39:18.211Z,12.70
2022-09-25T07:41:45.614Z,12.80
2022-09-25T07:44:27.989Z,12.70
2022-09-25T07:46:55.320Z,12.60
2022-09-25T07:49:21.811Z,12.60
2022-09-25T07:51:48.277Z,12.70
2022-09-25T07:54:14.821Z,12.70
2022-09-25T07:56:41.294Z,12.70
2022-09-25T07:59:07.809Z,12.60
2022-09-25T08:01:37.228Z,12.60
2022-09-25T08:04:07.617Z,12.70
2022-09-25T08:06:35.254Z,12.70
2022-09-25T08:09:05.594Z,12.80
2022-09-25T08:11:34.927Z,12.80
2022-09-25T08:14:02.355Z,12.80
2022-09-25T08:16:28.841Z,12.70
2022-09-25T08:18:55.308Z,12.70
2022-09-25T08:21:21.829Z,12.60
2022-09-25T08:23:52.133Z,12.70
2022-09-25T08:26:21.019Z,12.70
2022-09-25T08:28:51.346Z,12.80
2022-09-25T08:31:18.176Z,12.70
2022-09-25T08:33:49.621Z,12.80
2022-09-25T08:36:17.556Z,12.60
2022-09-25T08:38:44.628Z,12.70
2022-09-25T08:41:25.824Z,12.70
2022-09-25T08:45:22.420Z,12.90
2022-09-25T08:48:12.891Z,12.80
2022-09-25T08:50:39.505Z,12.80
2022-09-25T08:56:08.693Z,12.80
2022-09-25T08:59:28.426Z,12.70
2022-09-25T09:02:03.276Z,12.80
2022-09-25T09:04:44.250Z,12.90
2022-09-25T09:08:09.103Z,12.90
2022-09-25T09:11:02.280Z,13.00
2022-09-25T09:13:52.312Z,13.10
2022-09-25T09:17:08.196Z,13.20
2022-09-25T09:19:34.658Z,13.30
2022-09-25T09:22:17.568Z,13.40
2022-09-25T09:28:23.521Z,13.40
2022-09-25T09:33:49.013Z,13.80
2022-09-25T09:37:25.241Z,13.90
2022-09-25T09:42:14.222Z,13.90
2022-09-25T09:45:23.811Z,14.00
2022-09-25T09:51:06.253Z,14.10
2022-09-25T09:54:35.283Z,14.10
2022-09-25T09:57:10.469Z,14.20
2022-09-25T09:59:54.429Z,14.20
2022-09-25T10:02:39.170Z,14.20
2022-09-25T10:05:33.276Z,14.10
2022-09-25T10:08:00.249Z,14.30
2022-09-25T10:10:53.074Z,14.40
2022-09-25T10:13:36.039Z,14.40
2022-09-25T10:16:21.332Z,14.40
2022-09-25T10:19:25.330Z,14.40
2022-09-25T10:22:02.688Z,14.30
2022-09-25T10:25:04.780Z,14.20
2022-09-25T10:27:39.752Z,14.40
2022-09-25T10:30:27.394Z,14.60
2022-09-25T10:33:19.466Z,14.70
2022-09-25T10:35:47.870Z,14.90
2022-09-25T10:38:49.008Z,15.00
2022-09-25T10:41:19.964Z,14.90
2022-09-25T10:44:21.113Z,14.90
2022-09-25T10:47:06.080Z,14.90
2022-09-25T10:50:05.872Z,15.00
2022-09-25T10:53:01.200Z,15.10
2022-09-25T10:55:51.001Z,15.40
2022-09-25T10:58:35.121Z,15.60
2022-09-25T11:01:03.923Z,16.00
2022-09-25T11:03:38.457Z,16.40
2022-09-25T11:06:20.125Z,16.70
2022-09-25T11:09:48.531Z,16.60
2022-09-25T11:12:25.270Z,16.50
2022-09-25T11:15:05.368Z,16.50
2022-09-25T11:17:56.288Z,16.30
2022-09-25T11:20:31.225Z,16.20
2022-09-25T11:23:39.700Z,16.20
2022-09-25T11:26:23.917Z,16.10
2022-09-25T11:29:21.281Z,16.20
2022-09-25T11:36:42.007Z,16.20
2022-09-25T11:39:46.159Z,16.20
2022-09-25T11:42:36.162Z,16.50
2022-09-25T11:45:41.520Z,16.70
2022-09-25T11:48:24.047Z,16.70
2022-09-25T11:52:39.326Z,16.70
2022-09-25T11:56:24.774Z,16.70
2022-09-25T12:01:53.826Z,16.60
2022-09-25T12:06:47.370Z,16.90
2022-09-25T12:11:26.735Z,17.20
2022-09-25T12:14:21.704Z,17.70
2022-09-25T12:18:19.067Z,17.80
2022-09-25T12:21:09.962Z,17.60
2022-09-25T12:26:58.364Z,17.80
2022-09-25T12:30:15.392Z,17.80
2022-09-25T12:35:59.781Z,17.70
2022-09-25T12:39:58.508Z,17.80
2022-09-25T12:43:14.034Z,18.00
2022-09-25T12:46:00.187Z,18.00
2022-09-25T12:48:49.195Z,18.20
2022-09-25T12:51:39.737Z,18.20
2022-09-25T12:54:48.712Z,18.10
2022-09-25T12:57:26.966Z,18.20
2022-09-25T13:00:20.493Z,18.00
2022-09-25T13:04:37.656Z,18.20
2022-09-25T13:10:49.829Z,18.20
2022-09-25T13:13:21.688Z,18.20
2022-09-25T13:15:58.936Z,18.40
2022-09-25T13:18:30.014Z,18.30
2022-09-25T13:21:00.896Z,18.10
2022-09-25T13:23:39.867Z,18.10
2022-09-25T13:27:37.399Z,18.00
2022-09-25T13:30:05.060Z,17.80
2022-09-25T13:32:37.471Z,17.50
2022-09-25T13:35:20.072Z,17.40
2022-09-25T13:37:49.943Z,17.40
2022-09-25T13:40:40.222Z,17.30
2022-09-25T13:43:28.452Z,17.30
2022-09-25T13:49:49.664Z,17.40
2022-09-25T13:53:16.508Z,17.40
2022-09-25T13:56:20.868Z,17.40
2022-09-25T14:00:18.148Z,17.50
2022-09-25T14:02:45.806Z,17.50
2022-09-25T14:05:21.369Z,17.60
2022-09-25T14:07:54.131Z,17.50
2022-09-25T14:10:23.409Z,17.60
2022-09-25T14:12:51.195Z,17.50
2022-09-25T14:15:52.273Z,17.40
2022-09-25T14:18:27.795Z,17.50
2022-09-25T14:20:59.662Z,17.60
2022-09-25T14:23:32.355Z,17.60
2022-09-25T14:26:06.528Z,17.30
2022-09-25T14:28:44.719Z,17.20
2022-09-25T14:32:57.718Z,17.10
2022-09-25T14:36:17.146Z,17.20
2022-09-25T14:39:49.293Z,17.10
2022-09-25T14:46:01.358Z,16.90
2022-09-25T14:48:53.757Z,16.90
2022-09-25T14:51:41.109Z,16.80
2022-09-25T14:54:15.449Z,16.70
2022-09-25T14:56:48.119Z,16.60
2022-09-25T14:59:50.967Z,16.70
2022-09-25T15:02:47.564Z,16.60
2022-09-25T15:05:31.016Z,16.50
2022-09-25T15:08:01.483Z,16.40
2022-09-25T15:10:37.780Z,16.30
2022-09-25T15:13:20.028Z,16.20
2022-09-25T15:16:15.020Z,16.20
2022-09-25T15:18:53.351Z,16.10
2022-09-25T15:21:36.272Z,16.20
2022-09-25T15:24:13.423Z,16.20
2022-09-25T15:27:06.175Z,16.10
2022-09-25T15:29:41.584Z,16.00
2022-09-25T15:32:23.144Z,16.10
2022-09-25T15:34:49.995Z,16.10
2022-09-25T15:37:29.275Z,16.00
2022-09-25T15:40:09.222Z,16.10
2022-09-25T15:42:35.773Z,16.10
2022-09-25T15:45:35.837Z,16.10
2022-09-25T15:48:13.006Z,16.10
2022-09-25T15:50:43.977Z,16.10
2022-09-25T15:53:21.993Z,16.00
2022-09-25T15:55:59.588Z,15.90
2022-09-25T15:58:26.260Z,15.80
2022-09-25T16:01:21.344Z,15.80
2022-09-25T16:04:11.144Z,15.80
2022-09-25T16:06:44.113Z,15.70
2022-09-25T16:12:15.064Z,15.70
2022-09-25T16:14:41.588Z,15.70
2022-09-25T16:17:38.533Z,15.70
2022-09-25T16:20:29.492Z,15.60
2022-09-25T16:23:02.764Z,15.60
2022-09-25T16:25:43.007Z,15.60
2022-09-25T16:28:21.955Z,15.50
2022-09-25T16:31:07.003Z,15.40
2022-09-25T16:33:47.054Z,15.40
2022-09-25T16:36:17.596Z,15.40
2022-09-25T16:39:21.399Z,15.40
2022-09-25T16:41:49.483Z,15.40
2022-09-25T16:44:45.953Z,15.30
2022-09-25T16:47:19.351Z,15.40
2022-09-25T16:49:48.790Z,15.30
2022-09-25T16:52:22.257Z,15.30
2022-09-25T16:54:56.068Z,15.20
2022-09-25T16:57:26.946Z,15.10
2022-09-25T16:59:53.492Z,15.00
2022-09-25T17:02:36.293Z,15.10
2022-09-25T17:05:22.504Z,15.00
2022-09-25T17:08:05.449Z,15.00
2022-09-25T17:10:32.517Z,15.00
2022-09-25T17:13:01.386Z,15.10
2022-09-25T17:15:36.913Z,15.20
2022-09-25T17:18:20.745Z,15.20
2022-09-25T17:20:51.709Z,15.10
2022-09-25T17:23:23.975Z,15.00
2022-09-25T17:26:00.672Z,15.00
2022-09-25T17:28:28.673Z,14.90
2022-09-25T17:30:55.640Z,14.90
2022-09-25T17:33:23.106Z,14.90
2022-09-25T17:36:05.351Z,14.90
2022-09-25T17:38:33.393Z,14.80
2022-09-25T17:41:25.288Z,14.80
2022-09-25T17:43:52.204Z,14.80
2022-09-25T17:46:19.545Z,14.90
2022-09-25T17:48:51.558Z,14.90
2022-09-25T17:51:24.340Z,14.90
2022-09-25T17:53:55.369Z,14.90
2022-09-25T17:56:24.620Z,14.80
2022-09-25T17:58:55.905Z,14.70
2022-09-25T18:01:25.143Z,14.80
2022-09-25T18:03:57.717Z,14.70
2022-09-25T18:06:26.346Z,14.80
2022-09-25T18:08:56.244Z,14.80
2022-09-25T18:11:25.046Z,14.80
2022-09-25T18:13:53.808Z,15.00
2022-09-25T18:16:27.240Z,14.80
2022-09-25T18:19:12.182Z,14.70
2022-09-25T18:21:56.734Z,14.60
2022-09-25T18:24:23.193Z,14.70
2022-09-25T18:26:54.373Z,14.60
2022-09-25T18:29:21.323Z,14.70
2022-09-25T18:31:48.579Z,14.70
2022-09-25T18:34:17.308Z,14.60
2022-09-25T18:36:44.661Z,14.80
2022-09-25T18:39:13.848Z,14.70
2022-09-25T18:41:43.925Z,14.70
2022-09-25T18:44:12.529Z,14.70
2022-09-25T18:46:39.605Z,14.70
2022-09-25T18:49:07.755Z,14.70
2022-09-25T18:51:35.023Z,14.70
2022-09-25T18:54:02.592Z,14.70
2022-09-25T18:56:29.118Z,14.70
2022-09-25T18:58:55.576Z,14.70
2022-09-25T19:01:22.385Z,14.60
2022-09-25T19:03:52.592Z,14.70
2022-09-25T19:06:20.095Z,14.60
2022-09-25T19:08:53.166Z,14.70
2022-09-25T19:11:20.313Z,14.60
2022-09-25T19:13:48.689Z,14.60
2022-09-25T19:16:17.421Z,14.70
2022-09-25T19:18:44.486Z,14.70
2022-09-25T19:21:16.122Z,14.70
2022-09-25T19:23:43.405Z,14.70
2022-09-25T19:26:16.268Z,14.60
2022-09-25T19:28:42.792Z,14.60
2022-09-25T19:31:19.505Z,14.60
2022-09-25T19:33:46.137Z,14.50
2022-09-25T19:36:31.600Z,14.60
2022-09-25T19:38:59.890Z,14.50
2022-09-25T19:41:33.294Z,14.50
2022-09-25T19:44:11.861Z,14.60
2022-09-25T19:46:41.175Z,14.60
2022-09-25T19:49:07.919Z,14.50
2022-09-25T19:51:34.442Z,14.50
2022-09-25T19:54:00.936Z,14.50
2022-09-25T19:56:27.417Z,14.40
2022-09-25T19:58:54.575Z,14.50
2022-09-25T20:01:27.700Z,14.50
2022-09-25T20:03:55.895Z,14.50
2022-09-25T20:06:24.824Z,14.40
2022-09-25T20:08:57.209Z,14.30
2022-09-25T20:11:24.707Z,14.40
2022-09-25T20:13:52.996Z,14.40
2022-09-25T20:16:25.885Z,14.40
2022-09-25T20:18:56.896Z,14.40
2022-09-25T20:21:25.833Z,14.30
2022-09-25T20:23:55.487Z,14.30
2022-09-25T20:26:23.566Z,14.30
2022-09-25T20:28:57.572Z,14.20
2022-09-25T20:31:26.756Z,14.30
2022-09-25T20:33:54.086Z,14.20
2022-09-25T20:36:21.314Z,14.30
2022-09-25T20:38:53.223Z,14.30
2022-09-25T20:41:22.307Z,14.40
2022-09-25T20:43:51.635Z,14.30
2022-09-25T20:46:19.557Z,14.30
2022-09-25T20:48:50.555Z,14.30
2022-09-25T20:51:21.231Z,14.30
2022-09-25T20:53:53.188Z,14.20
2022-09-25T20:56:21.144Z,14.20
2022-09-25T20:58:52.361Z,14.50
2022-09-25T21:01:23.945Z,14.60
2022-09-25T21:03:51.552Z,14.60
2022-09-25T21:06:31.254Z,14.40
2022-09-25T21:09:01.617Z,14.30
2022-09-25T21:11:30.965Z,14.30
2022-09-25T21:14:04.227Z,14.30
2022-09-25T21:16:33.123Z,14.20
2022-09-25T21:19:03.810Z,14.20
2022-09-25T21:21:32.378Z,14.20
2022-09-25T21:23:59.014Z,14.20
2022-09-25T21:26:29.144Z,14.20
2022-09-25T21:28:59.315Z,14.10
2022-09-25T21:31:33.965Z,14.10
2022-09-25T21:34:01.124Z,14.00
2022-09-25T21:36:28.661Z,14.10
2022-09-25T21:38:55.938Z,14.10
2022-09-25T21:41:25.567Z,14.20
2022-09-25T21:44:11.304Z,14.20
2022-09-25T21:46:37.855Z,14.20
2022-09-25T21:49:07.308Z,14.20
2022-09-25T21:51:42.531Z,14.30
2022-09-25T21:54:12.278Z,14.20
2022-09-25T21:56:38.997Z,14.20
2022-09-25T21:59:12.141Z,14.20
2022-09-25T22:01:39.770Z,14.20
2022-09-25T22:04:10.310Z,14.20
2022-09-25T22:06:41.656Z,14.10
2022-09-25T22:09:18.470Z,14.10
2022-09-25T22:11:47.024Z,14.00
2022-09-25T22:14:16.281Z,14.00
2022-09-25T22:16:46.740Z,14.10
2022-09-25T22:19:21.407Z,14.30
2022-09-25T22:21:50.726Z,14.30
2022-09-25T22:24:17.892Z,14.10
2022-09-25T22:26:47.304Z,14.10
2022-09-25T22:29:15.748Z,14.10
2022-09-25T22:31:42.428Z,14.00
2022-09-25T22:34:20.187Z,13.90
2022-09-25T22:36:47.543Z,13.90
2022-09-25T22:39:17.173Z,13.80
2022-09-25T22:41:43.998Z,13.80
2022-09-25T22:44:10.463Z,13.70
2022-09-25T22:46:36.964Z,13.80
2022-09-25T22:49:03.757Z,13.80
2022-09-25T22:51:30.227Z,13.80
2022-09-25T22:53:56.684Z,13.70
2022-09-25T22:56:31.857Z,13.60
2022-09-25T22:59:09.696Z,13.60
2022-09-25T23:01:42.033Z,13.60
2022-09-25T23:04:18.821Z,13.70
2022-09-25T23:06:45.993Z,13.60
2022-09-25T23:09:20.771Z,13.60
2022-09-25T23:11:47.938Z,13.50
2022-09-25T23:14:20.157Z,13.50
2022-09-25T23:16:49.240Z,13.40
2022-09-25T23:19:16.410Z,13.30
2022-09-25T23:21:43.662Z,13.20
2022-09-25T23:24:17.208Z,13.10
2022-09-25T23:26:45.067Z,13.00
2022-09-25T23:29:15.098Z,13.00
2022-09-25T23:31:41.996Z,13.00
2022-09-25T23:34:09.790Z,13.10
2022-09-25T23:36:36.991Z,13.10
2022-09-25T23:39:07.598Z,13.10
2022-09-25T23:41:39.112Z,13.10
2022-09-25T23:44:10.422Z,13.10
2022-09-25T23:46:40.094Z,13.20
2022-09-25T23:49:07.495Z,13.20
2022-09-25T23:51:34.649Z,13.20
2022-09-25T23:54:01.793Z,13.30
2022-09-25T23:56:32.295Z,13.30
2022-09-25T23:59:01.076Z,13.40
